Time;durP1;ratioP1;P1;durP2;ratioP2;P2;SDS_P1;SDS_P2;PMS_P1;PMS_P2;Temp;Humidity;BMP_temperature;BMP_pressure;BME280_temperature;BME280_humidity;BME280_pressure;Samples;Min_cycle;Max_cycle;Signal;HPM_P1;HPM_P2
2022/08/11 00:01:46;;;;;;;5.78;5.28;;;;;;;19.13;99.72;63973.84;4948982;29;20212;-79
2022/08/11 00:04:16;;;;;;;4.70;4.43;;;;;;;19.11;100.00;63974.34;4949177;29;20668;-80
2022/08/11 00:06:45;;;;;;;5.82;4.93;;;;;;;19.08;99.29;63971.22;4948399;29;20203;-79
2022/08/11 00:09:17;;;;;;;5.45;5.05;;;;;;;19.06;99.04;63974.28;4949990;29;20284;-78
2022/08/11 00:11:48;;;;;;;5.40;5.00;;;;;;;19.07;99.42;63969.66;4937860;29;20277;-80
2022/08/11 00:14:19;;;;;;;5.28;4.88;;;;;;;18.99;100.00;63961.31;4947366;29;20533;-79
2022/08/11 00:16:55;;;;;;;5.43;5.10;;;;;;;18.63;100.00;63923.78;4942591;29;20202;-79
2022/08/11 00:19:27;;;;;;;5.78;5.38;;;;;;;18.69;100.00;63932.63;4932775;29;20236;-79
2022/08/11 00:21:54;;;;;;;6.00;5.50;;;;;;;18.71;100.00;63932.13;4939532;29;20256;-77
2022/08/11 00:24:22;;;;;;;7.68;5.93;;;;;;;18.63;100.00;63926.38;4948825;29;20221;-80
2022/08/11 00:26:51;;;;;;;5.80;5.40;;;;;;;18.57;100.00;63920.13;4948895;29;20208;-78
2022/08/11 00:29:18;;;;;;;6.53;5.93;;;;;;;18.64;100.00;63927.41;4946983;29;20236;-80
2022/08/11 00:31:49;;;;;;;6.50;6.00;;;;;;;18.60;100.00;63923.25;4943543;29;20513;-78
2022/08/11 00:34:23;;;;;;;6.18;5.72;;;;;;;18.64;100.00;63930.00;4947002;29;20232;-79
2022/08/11 00:36:55;;;;;;;6.10;5.60;;;;;;;18.63;100.00;63926.88;4949312;29;20214;-79
2022/08/11 00:39:24;;;;;;;5.80;5.40;;;;;;;18.69;100.00;63930.56;4945011;29;20239;-78
2022/08/11 00:42:12;;;;;;;5.50;5.20;;;;;;;18.71;100.00;63932.63;4948888;29;20207;-79
2022/08/11 00:45:03;;;;;;;7.47;5.38;;;;;;;18.74;100.00;63938.34;4949004;29;20228;-79
2022/08/11 00:47:44;;;;;;;6.70;5.47;;;;;;;18.76;100.00;63935.28;4946751;29;20200;-78
2022/08/11 00:50:21;;;;;;;11.40;5.72;;;;;;;18.75;100.00;63944.56;4946759;29;20601;-78
2022/08/11 00:53:16;;;;;;;6.22;5.57;;;;;;;18.72;100.00;63933.16;4940368;29;20201;-78
2022/08/11 00:56:18;;;;;;;5.40;4.95;;;;;;;18.74;100.00;63933.19;4927831;29;20205;-79
2022/08/11 00:59:14;;;;;;;6.10;5.60;;;;;;;18.77;100.00;63935.78;4910236;29;20243;-77
2022/08/11 01:01:59;;;;;;;5.72;5.22;;;;;;;18.79;100.00;63941.00;4947086;29;20216;-79
2022/08/11 01:05:02;;;;;;;5.97;5.50;;;;;;;18.78;100.00;63942.00;4939320;29;20268;-78
2022/08/11 01:08:07;;;;;;;6.38;5.90;;;;;;;18.77;100.00;63938.91;4932244;29;20228;-78
2022/08/11 01:10:55;;;;;;;6.40;5.90;;;;;;;18.74;100.00;63935.25;4935338;29;20252;-78
2022/08/11 01:13:53;;;;;;;5.07;4.68;;;;;;;18.69;100.00;63933.13;4947366;29;20267;-80
2022/08/11 01:16:56;;;;;;;6.90;6.40;;;;;;;18.64;100.00;63927.91;4938660;29;20212;-79
2022/08/11 01:19:57;;;;;;;6.15;5.60;;;;;;;18.66;100.00;63929.47;4941573;29;20240;-77
2022/08/11 01:22:51;;;;;;;6.25;5.57;;;;;;;18.52;100.00;63910.25;4947889;29;20196;-79
2022/08/11 01:25:53;;;;;;;12.65;5.95;;;;;;;18.49;100.00;63906.63;4942610;29;20537;-78
2022/08/11 01:29:08;;;;;;;6.22;5.75;;;;;;;18.50;100.00;63910.75;4919001;29;20236;-78
2022/08/11 01:31:58;;;;;;;5.93;5.43;;;;;;;18.49;100.00;63914.34;4937744;29;20208;-79
2022/08/11 01:35:24;;;;;;;6.13;5.50;;;;;;;18.44;100.00;63899.34;4947929;29;20288;-78
2022/08/11 01:38:25;;;;;;;6.60;5.95;;;;;;;18.38;100.00;63898.75;4869769;29;20200;-79
2022/08/11 01:41:05;;;;;;;6.57;6.10;;;;;;;18.37;100.00;63894.63;4944113;29;20232;-78
2022/08/11 01:46:56;;;;;;;8.73;5.88;;;;;;;18.33;100.00;63893.03;4934030;29;20201;-77
2022/08/11 01:49:31;;;;;;;6.53;6.03;;;;;;;18.33;100.00;63895.59;4949807;29;20345;-79
2022/08/11 01:52:14;;;;;;;7.05;6.47;;;;;;;18.33;100.00;63898.19;4951524;29;20200;-79
2022/08/11 01:54:47;;;;;;;6.20;5.70;;;;;;;18.30;100.00;63895.06;4937877;29;20216;-80
2022/08/11 01:57:28;;;;;;;6.10;5.60;;;;;;;18.31;100.00;63896.09;4941848;29;20213;-79
2022/08/11 02:00:07;;;;;;;6.30;5.90;;;;;;;18.34;100.00;63894.06;4949927;29;20236;-79
2022/08/11 02:02:47;;;;;;;6.78;6.18;;;;;;;18.24;100.00;63886.75;4947425;29;20209;-78
2022/08/11 02:05:36;;;;;;;7.07;6.47;;;;;;;18.34;100.00;63894.56;4948532;29;20227;-78
2022/08/11 02:08:18;;;;;;;7.07;6.57;;;;;;;18.33;100.00;63888.38;4947171;29;20232;-79
2022/08/11 02:13:45;;;;;;;5.85;5.45;;;;;;;18.31;100.00;63888.34;4950733;29;20293;-78
2022/08/11 02:16:21;;;;;;;6.55;6.05;;;;;;;18.22;100.00;63881.56;4945119;29;20230;-79
2022/08/11 02:24:38;;;;;;;6.32;5.93;;;;;;;18.34;100.00;63892.00;4916693;29;20288;-78
2022/08/11 02:27:08;;;;;;;6.97;5.95;;;;;;;18.34;100.00;63892.00;4950019;29;20200;-79
2022/08/11 02:29:46;;;;;;;6.18;5.68;;;;;;;18.28;100.00;63888.34;4946534;29;20225;-79
2022/08/11 02:35:18;;;;;;;6.13;5.63;;;;;;;18.25;100.00;63885.22;4945068;29;20308;-78
2022/08/11 02:37:54;;;;;;;6.30;5.90;;;;;;;18.21;100.00;63880.50;4944326;29;20205;-79
2022/08/11 02:40:31;;;;;;;5.72;5.25;;;;;;;18.16;100.00;63878.41;4949948;29;20419;-78
2022/08/11 02:43:24;;;;;;;6.85;6.00;;;;;;;18.18;100.00;63877.94;4944098;29;20208;-79
2022/08/11 02:46:16;;;;;;;6.53;6.00;;;;;;;18.14;100.00;63873.22;4950814;29;20204;-79
2022/08/11 02:51:44;;;;;;;5.85;5.07;;;;;;;17.99;100.00;63860.19;4943696;29;20200;-79
2022/08/11 02:54:20;;;;;;;9.38;5.95;;;;;;;18.04;100.00;63865.38;4949028;29;20392;-77
2022/08/11 02:57:13;;;;;;;5.68;5.28;;;;;;;18.02;100.00;63861.25;4945832;29;20207;-79
2022/08/11 02:59:52;;;;;;;5.30;5.00;;;;;;;17.97;100.00;63855.53;4949401;29;20443;-78
2022/08/11 03:02:55;;;;;;;5.72;5.10;;;;;;;17.96;100.00;63849.34;4945847;29;20448;-78
2022/08/11 03:05:31;;;;;;;5.65;4.88;;;;;;;17.97;100.00;63858.63;4945672;29;20456;-78
2022/08/11 03:08:18;;;;;;;5.95;5.55;;;;;;;17.90;100.00;63846.19;4948955;29;20434;-78
2022/08/11 03:16:47;;;;;;;5.57;5.03;;;;;;;17.81;100.00;63836.28;4930721;29;20223;-77
2022/08/11 03:19:22;;;;;;;5.78;5.35;;;;;;;17.81;100.00;63839.38;4939370;29;20332;-80
2022/08/11 03:22:02;;;;;;;5.10;4.80;;;;;;;17.80;100.00;63835.25;4949203;29;20373;-79
2022/08/11 03:24:39;;;;;;;6.32;5.72;;;;;;;17.84;100.00;63841.97;4936847;29;20581;-78
2022/08/11 03:27:10;;;;;;;5.70;5.30;;;;;;;17.84;100.00;63839.94;4937007;29;20406;-78
2022/08/11 03:29:46;;;;;;;6.03;5.63;;;;;;;17.79;100.00;63837.28;4939796;29;20548;-77
2022/08/11 03:32:25;;;;;;;5.50;5.20;;;;;;;17.75;100.00;63833.13;4946811;29;20197;-78
2022/08/11 03:34:53;;;;;;;5.43;5.10;;;;;;;17.74;100.00;63831.56;4930476;29;20243;-79
2022/08/11 03:37:51;;;;;;;22.50;17.60;;;;;;;17.73;100.00;63833.63;4940411;29;20216;-79
2022/08/11 03:43:54;;;;;;;5.88;5.35;;;;;;;17.67;100.00;63821.72;4947859;29;20233;-78
2022/08/11 03:46:34;;;;;;;5.13;4.75;;;;;;;17.74;100.00;63837.22;4932460;29;20209;-78
2022/08/11 03:49:11;;;;;;;5.78;5.38;;;;;;;17.76;100.00;63836.22;4949194;29;20592;-79
2022/08/11 03:51:50;;;;;;;5.85;5.30;;;;;;;17.82;100.00;63845.06;4936279;29;20208;-78
2022/08/11 03:54:25;;;;;;;6.03;5.63;;;;;;;17.80;100.00;63837.81;4929516;29;20401;-78
2022/08/11 03:57:29;;;;;;;6.00;5.50;;;;;;;17.83;100.00;63844.03;4943985;29;20200;-80
2022/08/11 04:00:17;;;;;;;6.00;5.50;;;;;;;17.91;100.00;63854.94;4933383;29;20232;-79
2022/08/11 04:03:25;;;;;;;5.97;5.47;;;;;;;17.98;100.00;63856.56;4948445;29;20225;-79
2022/08/11 04:06:21;;;;;;;34.28;24.83;;;;;;;18.03;100.00;63861.78;4946512;29;20219;-79
2022/08/11 04:09:45;;;;;;;8.60;7.78;;;;;;;18.10;100.00;63871.66;4919199;29;20221;-79
2022/08/11 04:12:31;;;;;;;6.13;5.72;;;;;;;18.21;100.00;63880.50;4930279;29;20208;-79
2022/08/11 04:18:39;;;;;;;5.78;5.38;;;;;;;18.39;100.00;63901.84;4943700;29;20268;-78
2022/08/11 04:21:26;;;;;;;5.80;5.40;;;;;;;18.53;100.00;63913.38;4947545;29;20236;-78
2022/08/11 04:24:12;;;;;;;5.72;5.32;;;;;;;18.63;100.00;63921.72;4942527;29;20665;-78
2022/08/11 04:27:02;;;;;;;6.43;5.90;;;;;;;18.62;100.00;63925.34;4942958;29;20201;-79
2022/08/11 04:29:59;;;;;;;6.22;5.72;;;;;;;18.78;100.00;63937.34;4932760;29;20433;-79
2022/08/11 04:32:46;;;;;;;6.13;5.63;;;;;;;18.90;100.00;63952.44;4943882;29;20233;-77
2022/08/11 04:35:42;;;;;;;6.00;5.57;;;;;;;18.93;100.00;63955.56;4947523;29;20552;-78
2022/08/11 04:38:28;;;;;;;6.70;6.03;;;;;;;19.03;100.00;63963.44;4929586;29;20269;-78
2022/08/11 04:41:22;;;;;;;6.00;5.30;;;;;;;19.08;100.00;63973.81;4929869;29;20472;-78
2022/08/11 04:44:23;;;;;;;5.68;5.28;;;;;;;19.01;100.00;63968.56;4928817;29;20454;-78
2022/08/11 05:01:39;;;;;;;5.65;5.25;;;;;;;19.06;100.00;63971.72;4926258;29;20211;-76
2022/08/11 05:03:23;;;;;;;6.35;5.85;;;;;;;19.06;100.00;63971.72;4942064;29;20203;-75
2022/08/11 05:06:32;;;;;;;6.47;5.97;;;;;;;19.11;100.00;63976.94;4934569;29;20232;-77
2022/08/11 05:09:20;;;;;;;6.00;5.50;;;;;;;19.13;100.00;63975.91;4946375;29;20454;-75
2022/08/11 05:12:28;;;;;;;7.05;6.38;;;;;;;19.23;100.00;63986.31;4938597;29;20280;-78
2022/08/11 05:35:03;;;;;;;7.28;6.40;;;;;;;19.13;100.00;63981.06;4946504;29;20284;-77
2022/08/11 05:37:38;;;;;;;10.18;7.28;;;;;;;19.26;100.00;63989.44;4940830;29;20208;-77
2022/08/11 05:56:56;;;;;;;8.38;7.10;;;;;;;19.50;100.00;64015.03;4943892;29;20270;-78
2022/08/11 05:59:27;;;;;;;8.20;7.40;;;;;;;19.89;100.00;64057.25;4945599;29;20547;-79
2022/08/11 06:02:00;;;;;;;7.90;7.10;;;;;;;20.01;100.00;64067.72;4946755;29;20216;-77
2022/08/11 06:04:29;;;;;;;7.97;6.18;;;;;;;20.06;100.00;64072.41;4943454;29;20236;-79
2022/08/11 06:06:58;;;;;;;7.00;6.40;;;;;;;20.16;100.00;64083.38;4943596;29;20528;-79
2022/08/11 06:09:28;;;;;;;6.95;6.32;;;;;;;20.34;100.00;64104.22;4929353;29;20239;-77
2022/08/11 06:11:59;;;;;;;6.95;6.45;;;;;;;20.40;97.91;64110.47;4932638;29;20345;-77
2022/08/11 06:14:29;;;;;;;6.72;6.20;;;;;;;20.39;97.93;64104.78;4943167;29;20242;-79
2022/08/11 06:16:59;;;;;;;7.03;5.93;;;;;;;20.63;95.08;64134.50;4944349;29;20249;-78
2022/08/11 06:19:34;;;;;;;7.95;6.15;;;;;;;20.57;94.14;64123.56;4946844;29;20229;-77
2022/08/11 06:22:04;;;;;;;9.75;6.03;;;;;;;20.55;95.21;64124.06;4945330;29;20280;-78
2022/08/11 06:24:32;;;;;;;6.32;5.70;;;;;;;20.86;92.58;64155.41;4944577;29;20216;-79
2022/08/11 06:27:00;;;;;;;7.30;6.07;;;;;;;21.06;90.31;64181.47;4946737;29;20232;-78
2022/08/11 06:29:31;;;;;;;6.05;5.45;;;;;;;21.19;85.37;64195.06;4950732;29;20224;-77
2022/08/11 06:32:00;;;;;;;5.63;5.10;;;;;;;21.12;83.88;64183.06;4950639;29;20211;-78
2022/08/11 06:34:47;;;;;;;10.27;5.05;;;;;;;21.10;82.56;64183.06;4945102;29;20228;-75
2022/08/11 06:37:22;;;;;;;4.20;4.00;;;;;;;21.20;81.70;64190.91;4937850;29;20205;-77
2022/08/11 06:39:59;;;;;;;6.13;5.57;;;;;;;21.22;83.09;64193.00;4946171;29;20235;-78
2022/08/11 06:42:36;;;;;;;5.07;4.60;;;;;;;21.48;82.22;64220.69;4950973;29;20509;-79
2022/08/11 06:45:12;;;;;;;4.82;4.45;;;;;;;21.41;77.97;64215.97;4944181;29;20243;-78
2022/08/11 06:47:46;;;;;;;4.00;3.80;;;;;;;21.55;75.48;64228.00;4941221;29;20211;-75
2022/08/11 06:53:05;;;;;;;4.28;3.97;;;;;;;21.57;73.44;64232.16;4932970;29;20273;-76
2022/08/11 07:01:12;;;;;;;4.97;4.50;;;;;;;21.72;70.08;64247.81;4949965;29;20220;-78
2022/08/11 07:03:45;;;;;;;4.43;3.97;;;;;;;21.75;71.15;64253.56;4944690;29;20296;-78
2022/08/11 07:06:27;;;;;;;6.40;3.88;;;;;;;21.81;71.14;64251.53;4944394;29;20223;-78
2022/08/11 07:30:55;;;;;;;3.75;3.55;;;;;;;22.43;64.72;64316.34;4947482;29;20220;-79
2022/08/11 07:33:28;;;;;;;4.35;4.05;;;;;;;22.59;65.39;64335.69;4947618;29;20224;-79
2022/08/11 07:36:02;;;;;;;7.03;4.30;;;;;;;22.69;63.02;64341.44;4938312;29;20220;-78
2022/08/11 07:38:43;;;;;;;4.68;4.38;;;;;;;22.94;63.46;64369.66;4939369;29;20420;-80
2022/08/11 07:41:11;;;;;;;3.88;3.53;;;;;;;23.14;62.55;64393.19;4948464;29;20236;-77
2022/08/11 07:43:40;;;;;;;3.95;3.75;;;;;;;23.49;62.98;64434.50;4947423;29;20268;-79
2022/08/11 07:54:26;;;;;;;4.32;4.03;;;;;;;23.16;59.46;64397.88;4930785;29;20221;-79
2022/08/11 07:56:54;;;;;;;3.88;3.60;;;;;;;23.28;59.62;64409.94;4947141;29;20212;-79
2022/08/11 08:18:41;;;;;;;3.55;3.35;;;;;;;22.71;59.49;64350.81;4947998;29;20227;-78
2022/08/11 08:21:13;;;;;;;4.65;3.60;;;;;;;22.80;57.90;64358.16;4945863;29;20232;-79
2022/08/11 08:23:43;;;;;;;3.75;3.55;;;;;;;23.10;57.04;64391.06;4932876;29;20252;-79
2022/08/11 08:30:46;;;;;;;4.22;3.90;;;;;;;23.49;56.06;64427.22;4935011;29;20320;-79
2022/08/11 08:31:47;;;;;;;4.53;4.00;;;;;;;23.63;56.35;64446.53;4943968;29;20286;-77
2022/08/11 08:34:15;;;;;;;3.60;3.40;;;;;;;23.86;54.46;64473.75;4931905;29;20284;-81
2022/08/11 08:36:44;;;;;;;4.15;3.80;;;;;;;23.91;53.39;64478.44;4942299;29;20237;-79
2022/08/11 08:39:12;;;;;;;3.80;3.60;;;;;;;23.66;54.97;64450.19;4943869;29;20217;-78
2022/08/11 08:41:43;;;;;;;4.45;3.92;;;;;;;23.59;55.09;64444.97;4950112;29;20236;-77
2022/08/11 08:44:13;;;;;;;4.50;4.20;;;;;;;23.78;55.88;64459.66;4950413;29;20221;-79
2022/08/11 08:46:43;;;;;;;5.13;4.07;;;;;;;23.91;53.59;64471.16;4930355;29;20229;-78
2022/08/11 08:49:16;;;;;;;4.18;3.97;;;;;;;24.21;53.39;64498.94;4932055;29;20269;-79
2022/08/11 08:51:45;;;;;;;4.10;3.80;;;;;;;24.25;53.31;64508.31;4931246;29;20197;-79
2022/08/11 08:54:17;;;;;;;3.95;3.75;;;;;;;24.01;54.67;64483.72;4929179;29;20226;-79
2022/08/11 08:56:49;;;;;;;3.85;3.65;;;;;;;24.07;53.42;64486.88;4929199;29;20377;-77
2022/08/11 08:59:16;;;;;;;3.72;3.40;;;;;;;24.09;51.17;64491.56;4930559;29;20281;-81
2022/08/11 09:01:49;;;;;;;4.43;3.50;;;;;;;24.11;51.08;64496.28;4946190;29;20237;-77
2022/08/11 09:04:19;;;;;;;4.07;3.78;;;;;;;24.31;51.17;64514.59;4948652;29;20232;-79
2022/08/11 09:06:49;;;;;;;4.32;4.03;;;;;;;24.45;51.87;64529.78;4948385;29;20489;-79
2022/08/11 09:09:17;;;;;;;4.65;4.30;;;;;;;24.73;50.58;64561.22;4944938;29;20235;-81
2022/08/11 09:11:52;;;;;;;3.72;3.53;;;;;;;24.82;48.97;64568.00;4941903;29;20211;-76
2022/08/11 09:14:20;;;;;;;2.60;2.50;;;;;;;24.82;47.68;64570.63;4946326;29;20272;-79
2022/08/11 09:16:48;;;;;;;3.60;3.30;;;;;;;25.50;49.01;64643.97;4937022;29;20273;-78
2022/08/11 09:19:18;;;;;;;3.78;3.40;;;;;;;25.65;47.96;64659.69;4939708;29;20221;-78
2022/08/11 09:26:58;;;;;;;6.00;3.85;;;;;;;25.40;48.23;64634.03;4935616;29;20233;-80
2022/08/11 09:27:26;;;;;;;4.18;3.78;;;;;;;25.26;47.85;64619.34;4943516;29;20228;-76
2022/08/11 09:29:54;;;;;;;4.97;3.90;;;;;;;24.67;50.25;64557.50;4947218;29;20244;-80
2022/08/11 09:32:23;;;;;;;3.67;3.45;;;;;;;24.27;51.04;64518.22;4945884;29;20272;-75
2022/08/11 09:34:52;;;;;;;4.78;4.40;;;;;;;24.77;49.77;64568.53;4940189;29;20216;-78
2022/08/11 09:45:39;;;;;;;5.07;4.68;;;;;;;24.84;50.07;64568.03;4931085;29;20228;-76
2022/08/11 09:48:07;;;;;;;4.57;4.30;;;;;;;24.87;49.34;64573.25;4937235;29;20273;-77
2022/08/11 09:50:37;;;;;;;6.53;5.57;;;;;;;24.99;49.96;64588.97;4940822;29;20297;-76
2022/08/11 09:53:04;;;;;;;4.35;4.00;;;;;;;25.04;49.97;64593.66;4945413;29;20201;-78
2022/08/11 09:55:32;;;;;;;4.63;4.22;;;;;;;25.08;49.04;64600.47;4944766;29;20229;-77
2022/08/11 09:58:12;;;;;;;4.90;4.28;;;;;;;25.29;49.05;64616.72;4948208;29;20223;-79
2022/08/11 10:00:40;;;;;;;3.90;3.70;;;;;;;25.30;48.26;64623.00;4940285;29;20207;-80
2022/08/11 10:03:11;;;;;;;4.38;4.05;;;;;;;24.94;48.33;64586.31;4948711;29;20497;-78
2022/08/11 10:08:30;;;;;;;4.47;4.18;;;;;;;24.87;49.57;64573.25;4950574;29;20268;-78
2022/08/11 10:10:57;;;;;;;4.13;3.83;;;;;;;24.59;49.70;64546.53;4950392;29;20236;-79
2022/08/11 10:13:33;;;;;;;3.33;3.13;;;;;;;24.68;49.20;64555.94;4948475;29;20228;-77
2022/08/11 10:16:04;;;;;;;3.85;3.55;;;;;;;24.92;48.37;64584.22;4949112;29;20196;-79
2022/08/11 10:18:47;;;;;;;4.07;3.85;;;;;;;24.73;49.38;64561.72;4939093;29;20351;-78
2022/08/11 10:21:23;;;;;;;5.85;3.65;;;;;;;24.60;49.45;64547.56;4944573;29;20228;-77
2022/08/11 10:26:57;;;;;;;8.02;3.78;;;;;;;24.17;50.53;64499.94;4942011;29;20505;-82
2022/08/11 10:35:01;;;;;;;3.85;3.65;;;;;;;24.81;48.97;64574.78;4937301;29;20224;-78
2022/08/11 10:37:35;;;;;;;5.38;4.05;;;;;;;25.28;47.04;64618.28;4942884;29;20200;-78
2022/08/11 10:40:06;;;;;;;5.15;3.10;;;;;;;25.30;46.87;64618.28;4935911;29;20228;-79
2022/08/11 10:48:06;;;;;;;5.32;4.25;;;;;;;25.71;46.64;64661.28;4936357;29;20207;-78
2022/08/11 10:58:50;;;;;;;4.15;3.83;;;;;;;25.81;46.70;64674.38;4935069;29;20245;-77
2022/08/11 11:01:23;;;;;;;8.50;4.10;;;;;;;25.82;46.57;64674.88;4930942;29;20288;-79
2022/08/11 11:03:52;;;;;;;6.05;4.57;;;;;;;25.99;46.76;64690.63;4931179;29;20273;-78
2022/08/11 11:06:26;;;;;;;5.38;4.13;;;;;;;25.87;47.35;64683.25;4935552;29;20221;-78
2022/08/11 11:08:58;;;;;;;5.25;4.88;;;;;;;25.81;47.70;64671.75;4931688;29;20597;-79
2022/08/11 11:19:47;;;;;;;3.80;3.60;;;;;;;26.30;46.03;64719.47;4937074;29;20229;-80
2022/08/11 11:25:07;;;;;;;3.47;3.28;;;;;;;25.77;44.42;64670.19;4931930;29;20284;-79
2022/08/11 11:27:47;;;;;;;5.00;3.90;;;;;;;26.13;44.63;64702.19;4941643;29;20247;-79
2022/08/11 11:30:16;;;;;;;3.25;3.10;;;;;;;26.53;43.75;64749.34;4932673;29;20206;-79
2022/08/11 11:33:00;;;;;;;3.83;3.63;;;;;;;26.49;44.15;64744.63;4950348;29;20255;-80
2022/08/11 11:35:43;;;;;;;3.17;2.95;;;;;;;25.97;44.46;64691.13;4941871;29;20241;-79
2022/08/11 11:38:11;;;;;;;3.90;3.10;;;;;;;26.10;44.55;64704.78;4938342;29;20225;-77
2022/08/11 11:40:40;;;;;;;3.20;3.00;;;;;;;26.10;44.49;64704.25;4935027;29;20388;-77
2022/08/11 11:43:08;;;;;;;4.25;3.28;;;;;;;26.06;44.45;64703.19;4935296;29;20233;-77
2022/08/11 11:45:36;;;;;;;4.28;3.83;;;;;;;26.66;43.73;64762.97;4946991;29;20213;-79
2022/08/11 11:48:06;;;;;;;3.45;3.05;;;;;;;27.08;42.20;64807.03;4941558;29;20276;-79
2022/08/11 11:50:35;;;;;;;7.00;4.88;;;;;;;26.67;43.42;64763.50;4938527;29;20220;-78
2022/08/11 11:53:06;;;;;;;3.85;3.45;;;;;;;26.82;43.12;64777.16;4945079;29;20204;-79
2022/08/11 11:55:34;;;;;;;4.00;3.67;;;;;;;27.07;42.34;64805.47;4949670;29;20251;-78
2022/08/11 12:01:18;;;;;;;3.30;3.10;;;;;;;27.17;41.70;64813.34;4900221;29;20191;-77
2022/08/11 12:03:50;;;;;;;4.35;4.05;;;;;;;27.46;41.20;64848.50;4924991;29;20305;-78
2022/08/11 12:06:19;;;;;;;4.00;3.60;;;;;;;27.35;41.35;64834.34;4929513;29;20193;-79
2022/08/11 12:08:49;;;;;;;3.53;3.33;;;;;;;27.36;41.52;64835.91;4940705;29;20233;-77
2022/08/11 12:14:05;;;;;;;3.75;3.53;;;;;;;27.36;43.83;64835.38;4928867;29;20247;-76
2022/08/11 12:16:35;;;;;;;4.30;3.88;;;;;;;27.60;44.86;64863.19;4943384;29;20328;-77
2022/08/11 12:19:06;;;;;;;4.63;4.18;;;;;;;27.42;45.03;64844.84;4947783;29;20239;-76
2022/08/11 12:21:36;;;;;;;5.72;3.33;;;;;;;26.72;45.16;64769.28;4948704;29;20267;-76
2022/08/11 12:29:34;;;;;;;3.72;3.38;;;;;;;27.52;45.15;64849.56;4928756;29;20240;-79
2022/08/11 12:32:07;;;;;;;4.60;4.13;;;;;;;26.97;45.11;64798.13;4929893;29;20201;-78
2022/08/11 12:34:37;;;;;;;4.18;3.88;;;;;;;26.74;46.22;64774.00;4936665;29;20227;-78
2022/08/11 12:37:09;;;;;;;4.68;4.28;;;;;;;26.46;46.26;64744.59;4929772;29;20241;-81
2022/08/11 12:45:27;;;;;;;3.95;3.65;;;;;;;25.61;48.69;64650.78;4936077;29;20244;-78
2022/08/11 12:53:41;;;;;;;4.57;3.85;;;;;;;25.04;52.53;64591.59;4927589;29;20220;-77
2022/08/11 13:07:15;;;;;;;4.63;3.47;;;;;;;24.29;55.06;64515.13;4934858;29;20445;-76
2022/08/11 13:09:45;;;;;;;10.90;3.78;;;;;;;24.03;56.66;64491.03;4945998;29;20545;-78
2022/08/11 13:14:59;;;;;;;5.45;3.88;;;;;;;23.71;59.74;64457.53;4946219;29;20244;-78
2022/08/11 13:17:28;;;;;;;3.58;3.00;;;;;;;23.62;60.60;64446.03;4947260;29;20272;-77
2022/08/11 13:19:57;;;;;;;4.95;3.85;;;;;;;23.49;60.87;64429.81;4942835;29;20264;-76
2022/08/11 13:22:27;;;;;;;4.15;3.85;;;;;;;23.29;63.01;64408.38;4945047;29;20487;-75
2022/08/11 13:24:57;;;;;;;5.07;4.15;;;;;;;23.36;62.72;64418.81;4946318;29;20444;-79
2022/08/11 13:27:25;;;;;;;3.75;3.47;;;;;;;23.36;61.83;64418.28;4929341;29;20244;-77
2022/08/11 13:31:09;;;;;;;5.38;3.83;;;;;;;23.20;63.01;64404.66;4932443;29;20220;-76
2022/08/11 13:32:42;;;;;;;3.88;3.67;;;;;;;23.20;63.82;64404.13;4946351;29;20201;-76
2022/08/11 13:35:13;;;;;;;3.75;3.47;;;;;;;23.30;62.97;64415.13;4945630;29;20220;-76
2022/08/11 13:37:44;;;;;;;10.93;3.58;;;;;;;23.27;62.80;64409.38;4946028;29;20201;-77
2022/08/11 13:40:14;;;;;;;4.00;3.67;;;;;;;23.67;61.96;64446.06;4931268;29;20233;-77
2022/08/11 13:42:42;;;;;;;6.85;3.45;;;;;;;23.99;59.52;64484.75;4927196;29;20601;-75
2022/08/11 13:45:10;;;;;;;3.88;3.47;;;;;;;24.27;56.88;64508.34;4927284;29;20244;-77
2022/08/11 13:47:38;;;;;;;6.07;3.53;;;;;;;24.41;56.24;64530.28;4928313;29;20198;-75
2022/08/11 13:50:07;;;;;;;6.93;3.95;;;;;;;24.49;55.78;64531.38;4945214;29;20482;-78
2022/08/11 13:52:38;;;;;;;3.67;3.25;;;;;;;25.07;56.72;64596.81;4946486;29;20497;-78
2022/08/11 13:55:08;;;;;;;4.20;3.50;;;;;;;25.61;54.60;64653.41;4946188;29;20459;-77
2022/08/11 13:57:36;;;;;;;3.50;3.35;;;;;;;26.19;51.87;64716.31;4947306;29;20216;-78
2022/08/11 14:00:12;;;;;;;3.88;3.47;;;;;;;26.27;49.20;64722.06;4945869;29;20221;-77
2022/08/11 14:02:42;;;;;;;3.28;3.08;;;;;;;26.58;48.85;64754.59;4946481;29;20295;-77
2022/08/11 14:05:15;;;;;;;3.38;3.00;;;;;;;27.14;46.98;64815.97;4941483;29;20236;-77
2022/08/11 14:07:49;;;;;;;3.53;2.90;;;;;;;27.31;46.29;64828.06;4940603;29;20224;-79
2022/08/11 14:10:21;;;;;;;3.55;3.33;;;;;;;27.88;44.56;64890.50;4945795;29;20407;-77
2022/08/11 14:15:45;;;;;;;4.07;2.85;;;;;;;28.58;43.14;64963.50;4948621;29;20253;-78
2022/08/11 14:18:19;;;;;;;3.63;3.28;;;;;;;28.57;42.05;64965.06;4947119;29;20203;-79
2022/08/11 14:23:40;;;;;;;3.10;2.90;;;;;;;28.75;41.75;64978.22;4939868;29;20263;-78
2022/08/11 14:26:26;;;;;;;3.13;3.00;;;;;;;28.56;40.56;64964.00;4946061;29;20251;-77
2022/08/11 14:28:55;;;;;;;3.10;2.90;;;;;;;28.35;40.69;64942.47;4946036;29;20519;-77
2022/08/11 14:31:25;;;;;;;4.38;3.13;;;;;;;28.76;39.89;64982.41;4947135;29;20196;-77
2022/08/11 14:33:55;;;;;;;3.08;2.85;;;;;;;29.44;38.90;65048.09;4947210;29;20223;-78
2022/08/11 14:36:24;;;;;;;3.15;3.05;;;;;;;29.83;37.88;65093.81;4928808;29;20269;-78
2022/08/11 14:38:52;;;;;;;3.03;2.90;;;;;;;29.91;36.99;65104.84;4927395;29;20254;-77
2022/08/11 14:47:05;;;;;;;2.95;2.85;;;;;;;28.28;40.20;64932.50;4943192;29;20291;-79
2022/08/11 14:49:35;;;;;;;2.95;2.85;;;;;;;28.27;40.15;64928.28;4949960;29;20433;-76
2022/08/11 14:52:04;;;;;;;3.38;3.00;;;;;;;28.12;40.50;64917.78;4949417;29;20296;-78
2022/08/11 14:57:20;;;;;;;3.50;2.67;;;;;;;27.59;40.59;64862.69;4946494;29;20245;-79
2022/08/11 14:59:50;;;;;;;3.67;3.05;;;;;;;27.72;40.81;64871.06;4945198;29;20261;-79
2022/08/11 15:05:06;;;;;;;3.35;3.17;;;;;;;28.05;40.33;64908.34;4932538;29;20225;-78
2022/08/11 15:07:34;;;;;;;3.05;2.95;;;;;;;27.64;40.41;64864.78;4939978;29;20390;-77
2022/08/11 15:10:03;;;;;;;2.95;2.85;;;;;;;27.83;40.08;64884.72;4935985;29;20281;-79
2022/08/11 15:12:33;;;;;;;3.38;3.17;;;;;;;28.23;38.87;64929.84;4929871;29;20202;-79
2022/08/11 15:17:47;;;;;;;3.70;3.40;;;;;;;27.80;40.58;64881.56;4929849;29;20208;-78
2022/08/11 15:25:51;;;;;;;3.28;3.17;;;;;;;26.64;44.06;64762.97;4917860;29;20200;-77
2022/08/11 15:39:28;;;;;;;4.30;3.85;;;;;;;25.76;46.73;64673.81;4946271;29;20402;-77
2022/08/11 15:47:42;;;;;;;3.72;3.53;;;;;;;25.01;49.50;64596.25;4946477;29;20276;-78
2022/08/11 15:50:14;;;;;;;3.88;3.58;;;;;;;24.78;49.81;64566.44;4941345;29;20229;-76
2022/08/11 15:52:49;;;;;;;3.35;3.15;;;;;;;24.52;50.50;64536.59;4928891;29;20202;-76
2022/08/11 15:55:18;;;;;;;3.65;3.40;;;;;;;24.43;50.95;64527.16;4928276;29;20283;-77
2022/08/11 16:06:09;;;;;;;4.63;3.85;;;;;;;24.33;51.41;64519.84;4944708;29;20248;-75
2022/08/11 16:08:40;;;;;;;3.75;3.55;;;;;;;24.17;51.66;64500.47;4931599;29;20229;-75
2022/08/11 16:11:09;;;;;;;3.67;3.45;;;;;;;24.12;51.87;64494.72;4927894;29;20249;-77
2022/08/11 16:16:27;;;;;;;3.42;3.13;;;;;;;24.02;51.77;64486.84;4947033;29;20183;-76
2022/08/11 16:18:57;;;;;;;4.88;2.97;;;;;;;23.78;52.80;64460.16;4947350;29;20224;-77
2022/08/11 16:21:27;;;;;;;4.53;4.07;;;;;;;23.68;53.05;64454.38;4947559;29;20448;-76
2022/08/11 16:23:57;;;;;;;42.83;25.23;;;;;;;23.70;53.07;64459.06;4945377;29;20236;-77
2022/08/11 16:26:25;;;;;;;22.85;15.80;;;;;;;23.60;53.79;64438.72;4946701;29;20236;-76
2022/08/11 16:28:54;;;;;;;19.88;13.40;;;;;;;23.58;53.99;64439.25;4947417;29;20471;-77
2022/08/11 16:31:24;;;;;;;17.38;12.77;;;;;;;23.61;54.28;64447.03;4944671;29;20204;-77
2022/08/11 16:33:53;;;;;;;5.97;5.47;;;;;;;23.53;54.44;64433.47;4947207;29;20456;-78
2022/08/11 16:39:10;;;;;;;3.83;3.53;;;;;;;23.54;53.88;64437.66;4946429;29;20251;-78
2022/08/11 16:47:16;;;;;;;3.50;3.33;;;;;;;23.74;52.06;64460.66;4928400;29;20212;-77
2022/08/11 16:49:46;;;;;;;4.35;3.97;;;;;;;23.66;52.99;64452.81;4932165;29;20581;-77
2022/08/11 16:52:14;;;;;;;4.35;3.67;;;;;;;23.62;53.02;64445.50;4947202;29;20201;-78
2022/08/11 16:54:42;;;;;;;4.38;3.97;;;;;;;23.68;52.93;64454.91;4947028;29;20266;-79
2022/08/11 17:00:03;;;;;;;3.88;3.67;;;;;;;23.88;52.60;64470.09;4944895;29;20227;-78